createdAt,value
2023-04-17T00:00:32.911Z,7.69
2023-04-17T00:03:01.540Z,7.55
2023-04-17T00:05:31.787Z,7.68
2023-04-17T00:08:00.237Z,7.56
2023-04-17T00:10:27.767Z,7.87
2023-04-17T00:12:55.255Z,7.76
2023-04-17T00:15:24.157Z,7.55
2023-04-17T00:17:51.656Z,7.49
2023-04-17T00:20:19.185Z,7.51
2023-04-17T00:22:46.655Z,7.70
2023-04-17T00:25:14.995Z,7.75
2023-04-17T00:27:43.033Z,7.61
2023-04-17T00:30:11.242Z,7.79
2023-04-17T00:32:40.065Z,7.45
2023-04-17T00:35:08.396Z,7.39
2023-04-17T00:37:36.277Z,7.29
2023-04-17T00:40:04.117Z,7.23
2023-04-17T00:42:31.582Z,7.18
2023-04-17T00:44:59.073Z,7.14
2023-04-17T00:47:26.854Z,7.00
2023-04-17T00:49:55.688Z,7.08
2023-04-17T00:52:29.588Z,6.98
2023-04-17T00:54:58.644Z,7.33
2023-04-17T00:57:26.414Z,7.33
2023-04-17T00:59:55.344Z,6.99
2023-04-17T01:02:23.025Z,7.21
2023-04-17T01:04:50.542Z,7.29
2023-04-17T01:07:19.363Z,7.21
2023-04-17T01:09:46.858Z,7.40
2023-04-17T01:12:18.802Z,7.16
2023-04-17T01:14:46.344Z,7.19
2023-04-17T01:17:15.352Z,7.16
2023-04-17T01:19:42.989Z,7.04
2023-04-17T01:22:10.459Z,7.31
2023-04-17T01:24:39.680Z,7.33
2023-04-17T01:27:07.699Z,7.34
2023-04-17T01:29:35.598Z,7.26
2023-04-17T01:32:03.064Z,7.06
2023-04-17T01:34:30.523Z,7.16
2023-04-17T01:36:58.075Z,7.06
2023-04-17T01:39:25.728Z,7.07
2023-04-17T01:41:54.568Z,7.37
2023-04-17T01:44:22.132Z,7.21
2023-04-17T01:46:49.610Z,7.27
2023-04-17T01:49:17.329Z,7.37
2023-04-17T01:51:44.815Z,7.39
2023-04-17T01:54:12.309Z,7.57
2023-04-17T01:56:39.781Z,7.34
2023-04-17T01:59:08.610Z,7.65
2023-04-17T02:01:36.930Z,8.29
2023-04-17T02:04:04.724Z,8.31
2023-04-17T02:06:32.580Z,8.37
2023-04-17T02:09:00.209Z,8.27
2023-04-17T02:11:27.669Z,7.65
2023-04-17T02:13:55.153Z,7.39
2023-04-17T02:16:24.172Z,7.28
2023-04-17T02:18:52.529Z,6.98
2023-04-17T02:21:19.982Z,6.99
2023-04-17T02:23:47.508Z,6.84
2023-04-17T02:26:15.052Z,7.15
2023-04-17T02:28:44.762Z,7.02
2023-04-17T02:31:13.275Z,6.71
2023-04-17T02:33:42.149Z,6.59
2023-04-17T02:36:10.312Z,6.96
2023-04-17T02:38:37.814Z,6.83
2023-04-17T02:41:06.203Z,6.94
2023-04-17T02:43:33.661Z,6.93
2023-04-17T02:46:01.411Z,6.80
2023-04-17T02:48:28.931Z,7.46
2023-04-17T02:50:57.801Z,7.76
2023-04-17T02:53:25.356Z,7.96
2023-04-17T02:55:52.832Z,7.87
2023-04-17T02:58:20.302Z,7.86
2023-04-17T03:00:47.882Z,7.33
2023-04-17T03:03:15.663Z,7.30
2023-04-17T03:05:43.485Z,7.10
2023-04-17T03:08:12.277Z,7.02
2023-04-17T03:10:39.720Z,6.85
2023-04-17T03:13:07.176Z,6.55
2023-04-17T03:15:36.247Z,6.40
2023-04-17T03:18:03.746Z,6.55
2023-04-17T03:20:31.245Z,6.46
2023-04-17T03:22:58.688Z,6.75
2023-04-17T03:25:27.595Z,6.97
2023-04-17T03:27:56.367Z,7.58
2023-04-17T03:30:23.909Z,7.68
2023-04-17T03:32:51.412Z,7.93
2023-04-17T03:35:19.007Z,8.35
2023-04-17T03:37:46.633Z,8.31
2023-04-17T03:40:14.315Z,8.27
2023-04-17T03:42:43.150Z,8.33
2023-04-17T03:45:11.515Z,8.28
2023-04-17T03:47:39.027Z,7.74
2023-04-17T03:50:07.716Z,7.58
2023-04-17T03:52:35.181Z,7.25
2023-04-17T03:55:02.706Z,7.46
2023-04-17T03:57:30.170Z,7.65
2023-04-17T03:59:58.946Z,7.30
2023-04-17T04:02:26.554Z,7.46
2023-04-17T04:04:54.258Z,6.82
2023-04-17T04:07:21.828Z,7.07
2023-04-17T04:09:49.302Z,6.89
2023-04-17T04:12:16.744Z,6.68
2023-04-17T04:14:44.204Z,6.83
2023-04-17T04:17:13.011Z,6.86
2023-04-17T04:19:40.565Z,6.89
2023-04-17T04:22:08.008Z,6.68
2023-04-17T04:24:35.527Z,6.66
2023-04-17T04:27:05.228Z,6.76
2023-04-17T04:29:33.087Z,6.58
2023-04-17T04:32:01.075Z,6.67
2023-04-17T04:34:30.186Z,6.46
2023-04-17T04:36:57.728Z,6.40
2023-04-17T04:39:25.269Z,7.13
2023-04-17T04:41:53.312Z,7.09
2023-04-17T04:44:21.268Z,7.00
2023-04-17T04:46:48.811Z,7.28
2023-04-17T04:49:16.288Z,7.33
2023-04-17T04:51:45.344Z,7.05
2023-04-17T04:54:12.822Z,6.98
2023-04-17T04:56:40.407Z,6.80
2023-04-17T04:59:07.876Z,6.64
2023-04-17T05:01:36.024Z,6.50
2023-04-17T05:04:03.807Z,6.56
2023-04-17T05:06:31.420Z,6.67
2023-04-17T05:09:00.754Z,6.58
2023-04-17T05:11:28.253Z,6.69
2023-04-17T05:13:55.704Z,6.60
2023-04-17T05:16:23.209Z,6.51
2023-04-17T05:18:50.655Z,6.47
2023-04-17T05:21:18.129Z,6.50
2023-04-17T05:23:45.609Z,6.46
2023-04-17T05:26:14.386Z,6.60
2023-04-17T05:28:41.868Z,6.63
2023-04-17T05:31:09.412Z,6.61
2023-04-17T05:33:36.923Z,6.65
2023-04-17T05:36:04.717Z,6.66
2023-04-17T05:38:32.517Z,6.82
2023-04-17T05:41:01.639Z,6.89
2023-04-17T05:43:30.444Z,6.86
2023-04-17T05:45:57.939Z,7.02
2023-04-17T05:48:25.451Z,7.23
2023-04-17T05:50:52.976Z,7.69
2023-04-17T05:53:20.660Z,8.11
2023-04-17T05:55:48.113Z,8.58
2023-04-17T06:00:47.511Z,8.91
2023-04-17T06:03:18.142Z,9.14
2023-04-17T06:05:46.976Z,9.29
2023-04-17T06:08:14.654Z,9.78
2023-04-17T06:10:42.251Z,10.22
2023-04-17T06:13:09.807Z,10.85
2023-04-17T06:15:37.247Z,10.85
2023-04-17T06:18:06.382Z,11.10
2023-04-17T06:20:33.887Z,11.04
2023-04-17T06:23:01.651Z,11.28
2023-04-17T06:25:29.168Z,11.30
2023-04-17T06:27:56.618Z,11.15
2023-04-17T06:30:24.142Z,11.50
2023-04-17T06:32:51.679Z,11.05
2023-04-17T06:35:20.677Z,10.52
2023-04-17T06:37:48.207Z,10.68
2023-04-17T06:40:15.693Z,10.84
2023-04-17T06:42:43.215Z,10.81
2023-04-17T06:45:11.499Z,10.04
2023-04-17T06:47:39.057Z,10.02
2023-04-17T06:50:08.096Z,10.35
2023-04-17T06:52:36.907Z,10.26
2023-04-17T06:55:04.631Z,10.30
2023-04-17T06:57:33.880Z,10.71
2023-04-17T07:00:01.371Z,10.52
2023-04-17T07:02:29.037Z,10.47
2023-04-17T07:04:56.806Z,10.38
2023-04-17T07:07:24.461Z,10.10
2023-04-17T07:09:53.279Z,9.91
2023-04-17T07:12:20.805Z,10.30
2023-04-17T07:14:48.274Z,10.64
2023-04-17T07:17:15.945Z,10.39
2023-04-17T07:19:43.407Z,10.99
2023-04-17T07:22:11.026Z,10.78
2023-04-17T07:24:38.465Z,10.64
2023-04-17T07:27:07.600Z,10.67
2023-04-17T07:29:35.381Z,11.70
2023-04-17T07:32:03.528Z,13.55
2023-04-17T07:34:32.780Z,13.45
2023-04-17T07:37:00.386Z,14.74
2023-04-17T07:39:31.465Z,15.11
2023-04-17T07:41:58.951Z,15.97
2023-04-17T07:44:27.747Z,15.21
2023-04-17T07:46:55.826Z,14.29
2023-04-17T07:49:23.403Z,14.20
2023-04-17T07:51:50.890Z,16.05
2023-04-17T07:54:18.345Z,17.26
2023-04-17T07:56:47.064Z,17.72
2023-04-17T07:59:14.606Z,18.72
2023-04-17T08:01:43.483Z,18.38
2023-04-17T08:04:11.329Z,17.20
2023-04-17T08:06:39.017Z,16.81
2023-04-17T08:09:07.095Z,14.50
2023-04-17T08:11:40.144Z,15.13
2023-04-17T08:14:15.419Z,15.76
2023-04-17T08:16:44.350Z,16.18
2023-04-17T08:19:12.045Z,16.27
2023-04-17T08:21:39.721Z,16.52
2023-04-17T08:24:07.859Z,16.99
2023-04-17T08:26:35.364Z,15.20
2023-04-17T08:29:04.636Z,14.10
2023-04-17T08:31:32.286Z,13.83
2023-04-17T08:34:12.974Z,13.70
2023-04-17T08:36:41.635Z,13.30
2023-04-17T08:39:10.018Z,13.13
2023-04-17T08:41:45.182Z,13.24
2023-04-17T08:44:12.804Z,13.65
2023-04-17T08:46:40.800Z,14.78
2023-04-17T08:49:09.713Z,14.50
2023-04-17T08:51:37.167Z,14.18
2023-04-17T08:54:04.821Z,13.70
2023-04-17T08:56:32.292Z,13.72
2023-04-17T08:58:59.753Z,14.16
2023-04-17T09:01:29.763Z,14.17
2023-04-17T09:03:57.988Z,14.30
2023-04-17T09:06:27.510Z,14.17
2023-04-17T09:08:56.735Z,13.83
2023-04-17T09:11:24.295Z,13.71
2023-04-17T09:13:51.985Z,13.28
2023-04-17T09:16:20.586Z,14.02
2023-04-17T09:18:49.407Z,15.39
2023-04-17T09:21:19.513Z,16.40
2023-04-17T09:23:50.986Z,15.68
2023-04-17T09:26:20.892Z,16.00
2023-04-17T09:29:07.579Z,17.84
2023-04-17T09:31:36.196Z,18.10
2023-04-17T09:34:05.228Z,16.87
2023-04-17T09:36:35.129Z,16.08
2023-04-17T09:39:05.327Z,15.93
2023-04-17T09:41:36.297Z,15.78
2023-04-17T09:44:05.511Z,16.50
2023-04-17T09:46:38.891Z,16.40
2023-04-17T09:49:11.298Z,15.90
2023-04-17T09:51:39.542Z,15.81
2023-04-17T09:54:11.602Z,15.63
2023-04-17T09:56:39.891Z,16.35
2023-04-17T09:59:08.594Z,16.24
2023-04-17T10:01:38.108Z,16.14
2023-04-17T10:04:06.731Z,15.81
2023-04-17T10:06:36.010Z,17.20
2023-04-17T10:09:04.287Z,17.42
2023-04-17T10:11:42.494Z,17.96
2023-04-17T10:14:14.781Z,17.18
2023-04-17T10:16:43.757Z,16.86
2023-04-17T10:19:30.271Z,16.10
2023-04-17T10:22:40.935Z,15.93
2023-04-17T10:25:22.508Z,15.78
2023-04-17T10:27:53.545Z,14.97
2023-04-17T10:30:23.433Z,15.77
2023-04-17T10:33:24.794Z,16.17
2023-04-17T10:35:53.667Z,16.52
2023-04-17T10:38:34.685Z,16.71
2023-04-17T10:41:04.781Z,17.21
2023-04-17T10:43:33.924Z,18.16
2023-04-17T10:46:06.481Z,18.01
2023-04-17T10:48:36.014Z,18.50
2023-04-17T10:51:42.343Z,16.65
2023-04-17T10:54:13.533Z,13.82
2023-04-17T10:56:43.020Z,13.35
2023-04-17T10:59:13.570Z,12.45
2023-04-17T11:01:59.486Z,12.33
2023-04-17T11:04:29.661Z,12.17
2023-04-17T11:06:57.331Z,11.71
2023-04-17T11:09:26.565Z,11.67
2023-04-17T11:11:54.186Z,11.71
2023-04-17T11:14:24.340Z,11.94
2023-04-17T11:16:53.106Z,11.93
2023-04-17T11:19:23.003Z,11.75
2023-04-17T11:21:52.272Z,12.17
2023-04-17T11:24:23.874Z,12.99
2023-04-17T11:26:51.589Z,13.86
2023-04-17T11:29:21.072Z,13.99
2023-04-17T11:31:51.825Z,13.46
2023-04-17T11:34:19.876Z,12.20
2023-04-17T11:36:51.046Z,11.71
2023-04-17T11:39:19.006Z,11.76
2023-04-17T11:41:46.848Z,12.31
2023-04-17T11:44:15.258Z,13.93
2023-04-17T11:46:42.783Z,15.73
2023-04-17T11:49:12.633Z,15.40
2023-04-17T11:51:43.044Z,16.53
2023-04-17T11:54:10.747Z,17.61
2023-04-17T11:56:38.364Z,16.52
2023-04-17T11:59:06.401Z,15.93
2023-04-17T12:01:33.996Z,15.37
2023-04-17T12:04:01.606Z,13.87
2023-04-17T12:06:38.374Z,13.90
2023-04-17T12:09:07.100Z,13.54
2023-04-17T12:11:34.805Z,13.53
2023-04-17T12:14:03.748Z,13.61
2023-04-17T12:16:31.466Z,13.49
2023-04-17T12:18:59.065Z,12.84
2023-04-17T12:21:26.653Z,12.31
2023-04-17T12:23:55.469Z,12.18
2023-04-17T12:26:24.941Z,11.92
2023-04-17T12:28:52.434Z,11.82
2023-04-17T12:33:47.527Z,11.50
2023-04-17T12:36:15.054Z,11.44
2023-04-17T12:38:43.249Z,11.52
2023-04-17T12:41:12.078Z,11.49
2023-04-17T12:43:39.536Z,11.62
2023-04-17T12:46:07.094Z,12.01
2023-04-17T12:48:34.941Z,12.47
2023-04-17T12:51:02.441Z,12.51
2023-04-17T12:53:30.351Z,12.91
2023-04-17T12:55:58.433Z,13.55
2023-04-17T12:58:27.300Z,13.75
2023-04-17T13:00:54.844Z,13.94
2023-04-17T13:03:22.493Z,14.37
2023-04-17T13:05:52.706Z,15.21
2023-04-17T13:08:20.306Z,16.04
2023-04-17T13:10:47.787Z,16.70
2023-04-17T13:13:15.253Z,15.67
2023-04-17T13:15:45.914Z,14.39
2023-04-17T13:18:13.432Z,14.59
2023-04-17T13:20:41.121Z,14.75
2023-04-17T13:23:11.703Z,14.48
2023-04-17T13:25:39.230Z,15.32
2023-04-17T13:28:06.795Z,15.67
2023-04-17T13:30:36.939Z,15.87
2023-04-17T13:33:05.945Z,15.80
2023-04-17T13:35:33.484Z,15.58
2023-04-17T13:38:03.036Z,15.76
2023-04-17T13:40:31.049Z,15.32
2023-04-17T13:42:58.528Z,15.63
2023-04-17T13:45:26.011Z,15.89
2023-04-17T13:47:53.766Z,16.36
2023-04-17T13:50:22.727Z,16.07
2023-04-17T13:52:50.270Z,15.77
2023-04-17T13:55:17.924Z,15.14
2023-04-17T13:57:45.398Z,14.76
2023-04-17T14:00:14.297Z,14.50
2023-04-17T14:02:42.648Z,15.13
2023-04-17T14:05:11.177Z,15.87
2023-04-17T14:07:40.460Z,16.92
2023-04-17T14:10:09.934Z,16.26
2023-04-17T14:12:37.469Z,15.40
2023-04-17T14:15:06.468Z,15.61
2023-04-17T14:17:34.359Z,15.89
2023-04-17T14:20:01.925Z,15.75
2023-04-17T14:22:29.426Z,15.03
2023-04-17T14:24:58.261Z,14.41
2023-04-17T14:27:25.875Z,14.08
2023-04-17T14:29:53.349Z,13.65
2023-04-17T14:32:20.866Z,13.37
2023-04-17T14:34:48.409Z,13.49
2023-04-17T14:37:15.978Z,13.46
2023-04-17T14:39:43.454Z,13.67
2023-04-17T14:42:12.238Z,14.06
2023-04-17T14:44:39.737Z,14.53
2023-04-17T14:47:08.098Z,14.99
2023-04-17T14:49:35.717Z,16.31
2023-04-17T14:52:03.202Z,17.17
2023-04-17T14:54:30.871Z,17.41
2023-04-17T14:56:58.625Z,16.29
2023-04-17T14:59:28.443Z,15.54
2023-04-17T15:01:56.123Z,15.87
2023-04-17T15:04:24.014Z,15.31
2023-04-17T15:06:51.628Z,15.26
2023-04-17T15:09:19.176Z,15.11
2023-04-17T15:11:47.423Z,15.53
2023-04-17T15:14:14.950Z,15.33
2023-04-17T15:16:43.765Z,14.57
2023-04-17T15:19:11.531Z,14.41
2023-04-17T15:21:39.148Z,14.85
2023-04-17T15:24:07.414Z,15.10
2023-04-17T15:26:35.474Z,15.19
2023-04-17T15:29:03.689Z,15.25
2023-04-17T15:31:31.162Z,15.43
2023-04-17T15:33:59.959Z,15.31
2023-04-17T15:36:32.132Z,15.18
2023-04-17T15:38:59.635Z,14.91
2023-04-17T15:41:27.256Z,14.68
2023-04-17T15:43:54.740Z,15.55
2023-04-17T15:46:22.351Z,15.69
2023-04-17T15:49:01.148Z,16.13
2023-04-17T15:51:37.283Z,15.29
2023-04-17T15:54:05.754Z,14.62
2023-04-17T15:56:33.312Z,14.29
2023-04-17T15:59:00.888Z,14.01
2023-04-17T16:01:28.630Z,13.25
2023-04-17T16:03:56.328Z,13.53
2023-04-17T16:06:23.991Z,13.77
2023-04-17T16:08:52.860Z,13.67
2023-04-17T16:11:20.544Z,13.77
2023-04-17T16:13:47.997Z,13.32
2023-04-17T16:16:15.910Z,13.36
2023-04-17T16:18:43.408Z,12.78
2023-04-17T16:21:11.986Z,12.66
2023-04-17T16:23:39.476Z,12.64
2023-04-17T16:26:08.466Z,12.94
2023-04-17T16:28:36.187Z,13.46
2023-04-17T16:31:03.690Z,13.81
2023-04-17T16:33:31.201Z,14.05
2023-04-17T16:35:58.681Z,13.80
2023-04-17T16:38:27.555Z,13.18
2023-04-17T16:40:57.026Z,12.52
2023-04-17T16:43:25.872Z,12.38
2023-04-17T16:45:53.330Z,12.51
2023-04-17T16:48:20.881Z,12.33
2023-04-17T16:50:48.593Z,12.57
2023-04-17T16:53:16.070Z,12.03
2023-04-17T16:55:43.625Z,12.00
2023-04-17T16:58:12.108Z,12.26
2023-04-17T17:00:40.905Z,12.32
2023-04-17T17:03:08.558Z,12.61
2023-04-17T17:05:36.959Z,12.34
2023-04-17T17:08:04.437Z,12.24
2023-04-17T17:10:31.866Z,12.16
2023-04-17T17:12:59.331Z,11.92
2023-04-17T17:15:26.815Z,12.07
2023-04-17T17:17:55.762Z,12.04
2023-04-17T17:20:23.308Z,11.60
2023-04-17T17:22:50.890Z,11.47
2023-04-17T17:25:18.573Z,11.39
2023-04-17T17:27:46.089Z,11.33
2023-04-17T17:30:14.527Z,11.26
2023-04-17T17:32:42.110Z,10.97
2023-04-17T17:35:11.239Z,10.53
2023-04-17T17:37:38.708Z,10.58
2023-04-17T17:40:07.527Z,10.60
2023-04-17T17:42:35.180Z,10.19
2023-04-17T17:45:02.817Z,10.22
2023-04-17T17:47:30.665Z,9.99
2023-04-17T17:49:58.396Z,10.05
2023-04-17T17:52:27.371Z,10.07
2023-04-17T17:54:54.854Z,9.87
2023-04-17T17:57:22.343Z,9.80
2023-04-17T17:59:49.901Z,9.81
2023-04-17T18:02:17.551Z,9.74
2023-04-17T18:04:49.026Z,9.56
2023-04-17T18:07:16.640Z,9.34
2023-04-17T18:09:46.375Z,9.30
2023-04-17T18:12:14.855Z,9.23
2023-04-17T18:14:42.321Z,9.34
2023-04-17T18:17:09.904Z,9.43
2023-04-17T18:19:40.731Z,9.44
2023-04-17T18:22:08.421Z,9.39
2023-04-17T18:24:35.967Z,9.39
2023-04-17T18:27:04.940Z,9.29
2023-04-17T18:29:33.834Z,9.20
2023-04-17T18:32:01.347Z,9.21
2023-04-17T18:34:28.857Z,9.35
2023-04-17T18:36:58.470Z,9.24
2023-04-17T18:39:26.067Z,9.24
2023-04-17T18:41:53.560Z,8.92
2023-04-17T18:44:22.773Z,8.98
2023-04-17T18:46:50.441Z,9.10
2023-04-17T18:49:18.126Z,9.09
2023-04-17T18:51:47.841Z,9.18
2023-04-17T18:54:15.939Z,9.17
2023-04-17T18:56:43.634Z,9.31
2023-04-17T18:59:11.619Z,9.15
2023-04-17T19:01:42.613Z,9.29
2023-04-17T19:04:10.491Z,9.41
2023-04-17T19:06:38.221Z,9.04
2023-04-17T19:09:05.729Z,8.96
2023-04-17T19:11:33.513Z,8.98
2023-04-17T19:14:01.015Z,8.71
2023-04-17T19:16:28.593Z,8.64
2023-04-17T19:18:57.515Z,8.53
2023-04-17T19:21:25.013Z,8.69
2023-04-17T19:23:52.503Z,8.58
2023-04-17T19:26:19.993Z,8.57
2023-04-17T19:28:47.481Z,8.52
2023-04-17T19:31:14.992Z,8.39
2023-04-17T19:33:42.507Z,8.44
2023-04-17T19:36:11.352Z,8.44
2023-04-17T19:38:38.840Z,8.19
2023-04-17T19:41:17.710Z,8.32
2023-04-17T19:43:46.012Z,8.22
2023-04-17T19:46:14.570Z,8.10
2023-04-17T19:48:43.582Z,8.13
2023-04-17T19:51:13.317Z,8.37
2023-04-17T19:53:42.645Z,8.41
2023-04-17T19:56:10.857Z,8.34
2023-04-17T19:58:39.303Z,8.09
2023-04-17T20:01:06.807Z,8.14
2023-04-17T20:03:35.415Z,8.16
2023-04-17T20:06:03.539Z,8.09
2023-04-17T20:08:32.393Z,8.07
2023-04-17T20:10:59.932Z,8.11
2023-04-17T20:13:27.954Z,8.13
2023-04-17T20:15:55.521Z,8.09
2023-04-17T20:18:23.041Z,8.21
2023-04-17T20:20:50.574Z,8.17
2023-04-17T20:23:18.039Z,8.20
2023-04-17T20:25:46.885Z,8.13
2023-04-17T20:28:14.463Z,8.03
2023-04-17T20:30:41.917Z,8.00
2023-04-17T20:33:09.485Z,7.79
2023-04-17T20:35:37.028Z,7.90
2023-04-17T20:38:04.620Z,7.87
2023-04-17T20:40:32.127Z,8.04
2023-04-17T20:43:01.059Z,7.78
2023-04-17T20:45:28.837Z,7.92
2023-04-17T20:47:57.220Z,7.84
2023-04-17T20:50:25.420Z,7.93
2023-04-17T20:52:52.915Z,7.98
2023-04-17T20:55:20.818Z,8.07
2023-04-17T20:57:48.680Z,8.08
2023-04-17T21:00:17.813Z,7.99
2023-04-17T21:02:45.892Z,7.90
2023-04-17T21:05:13.413Z,8.17
2023-04-17T21:07:40.884Z,7.93
2023-04-17T21:10:09.330Z,8.04
2023-04-17T21:12:36.782Z,8.05
2023-04-17T21:15:04.590Z,7.86
2023-04-17T21:17:33.424Z,7.85
2023-04-17T21:20:00.890Z,7.84
2023-04-17T21:22:28.354Z,7.75
2023-04-17T21:24:55.810Z,7.66
2023-04-17T21:27:23.750Z,7.76
2023-04-17T21:29:51.281Z,7.70
2023-04-17T21:32:18.796Z,7.72
2023-04-17T21:34:47.632Z,7.76
2023-04-17T21:37:15.125Z,7.69
2023-04-17T21:39:42.598Z,7.62
2023-04-17T21:42:10.695Z,7.54
2023-04-17T21:44:38.132Z,7.63
2023-04-17T21:47:05.666Z,7.49
2023-04-17T21:49:33.147Z,7.55
2023-04-17T21:52:02.042Z,7.65
2023-04-17T21:54:29.568Z,7.61
2023-04-17T21:56:57.017Z,7.53
2023-04-17T21:59:24.882Z,7.47
2023-04-17T22:01:52.375Z,7.72
2023-04-17T22:04:19.944Z,7.78
2023-04-17T22:06:47.499Z,7.75
2023-04-17T22:09:16.461Z,7.89
2023-04-17T22:11:43.952Z,7.82
2023-04-17T22:14:11.802Z,7.83
2023-04-17T22:16:39.437Z,7.82
2023-04-17T22:19:07.141Z,7.95
2023-04-17T22:21:34.617Z,7.91
2023-04-17T22:24:02.143Z,8.13
2023-04-17T22:26:31.538Z,8.13
2023-04-17T22:28:58.981Z,8.13
2023-04-17T22:31:26.491Z,8.26
2023-04-17T22:33:53.966Z,8.35
2023-04-17T22:36:21.427Z,8.37
2023-04-17T22:38:48.897Z,8.56
2023-04-17T22:41:16.338Z,8.46
2023-04-17T22:43:48.653Z,8.36
2023-04-17T22:46:16.606Z,8.07
2023-04-17T22:48:45.044Z,7.66
2023-04-17T22:51:13.525Z,7.52
2023-04-17T22:53:41.046Z,7.47
2023-04-17T22:56:12.784Z,7.40
2023-04-17T22:58:40.320Z,7.46
2023-04-17T23:01:09.188Z,7.36
2023-04-17T23:03:36.725Z,7.39
2023-04-17T23:06:04.916Z,7.43
2023-04-17T23:08:32.387Z,7.43
2023-04-17T23:11:00.945Z,7.52
2023-04-17T23:13:28.890Z,7.57
2023-04-17T23:15:56.433Z,7.47
2023-04-17T23:18:25.410Z,7.55
2023-04-17T23:20:52.896Z,7.44
2023-04-17T23:23:20.603Z,7.34
2023-04-17T23:25:48.193Z,7.37
2023-04-17T23:28:15.780Z,7.55
2023-04-17T23:30:43.281Z,7.52
2023-04-17T23:33:10.760Z,7.52
2023-04-17T23:35:39.559Z,7.41
2023-04-17T23:38:07.081Z,7.39
2023-04-17T23:40:35.721Z,7.32
2023-04-17T23:43:03.200Z,7.36
2023-04-17T23:45:30.683Z,7.36
2023-04-17T23:47:58.194Z,7.38
2023-04-17T23:50:25.973Z,7.21
2023-04-17T23:52:55.130Z,7.33
2023-04-17T23:55:25.708Z,7.38
2023-04-17T23:57:53.235Z,7.38
